Elkton, Maryland
Current Conditions -  °F | °C
As of 4:51 AM on Saturday 25 Oct 2014 (Local Time) from KILG Reporting Station
Clear Clear  
Wind Chill: 46°   Ceiling: Unl
Heat Index: 48°   Visibility: 10mi
Dew Point: 39°   Wind: 5mph
Humidity: 71%   Direction: 240°WSW
Pressure: 29.92"   Gusts: NA
Location:  39.61°N, 75.83°W
Report Text: KILG 250851Z 24004KT 10SM CLR 09/04 A2992 RMK AO2 SLP133 T00890039 53002
Loading
Personal Weather Stations






























Interactive Weather Map
Tropical Storm Tracking
New forecast layout! Learn more

10-Day Weather Forecast

Advertisements
Track Severe Weather on mobile